Bat Cave, North Carolina
Current Conditions -  °F | °C
As of 6:54 PM on Tuesday 25 Nov 2014 (Local Time) from KAVL Reporting Station
Clear Clear  
Wind Chill: 50°   Ceiling: Unl
Heat Index: 50°   Visibility: 10mi
Dew Point: 25°   Wind: 5mph
Humidity: 38%   Direction: 320°NW
Pressure: 30.06"   Gusts: NA
Location:  35.45°N, 82.29°W
Report Text: KAVL 252354Z AUTO 32004KT 10SM CLR 10/M04 A3006 RMK AO2 SLP175 T01001039 10139 20100 51015
Loading
Personal Weather Stations






























Interactive Weather Map New forecast layout! Learn more

10-Day Weather Forecast

Advertisements
Track Severe Weather on mobile